createdAt,value
2022-08-01T00:01:32.897Z,33.00
2022-08-01T00:04:01.694Z,31.95
2022-08-01T00:06:29.780Z,34.38
2022-08-01T00:08:57.806Z,33.63
2022-08-01T00:11:25.994Z,37.40
2022-08-01T00:13:54.375Z,34.03
2022-08-01T00:16:24.301Z,29.35
2022-08-01T00:21:24.184Z,35.95
2022-08-01T00:23:52.445Z,33.90
2022-08-01T00:26:21.686Z,37.88
2022-08-01T00:28:49.664Z,40.65
2022-08-01T00:31:17.830Z,38.90
2022-08-01T00:33:46.068Z,39.30
2022-08-01T00:36:14.276Z,39.55
2022-08-01T00:38:42.292Z,47.55
2022-08-01T00:41:12.886Z,52.17
2022-08-01T00:43:40.903Z,49.72
2022-08-01T00:46:08.830Z,43.88
2022-08-01T00:48:37.822Z,44.90
2022-08-01T00:51:07.437Z,43.33
2022-08-01T00:53:51.174Z,43.20
2022-08-01T00:56:28.212Z,41.45
2022-08-01T00:58:57.163Z,31.38
2022-08-01T01:01:25.571Z,31.02
2022-08-01T01:04:09.999Z,29.52
2022-08-01T01:06:54.993Z,30.75
2022-08-01T01:09:46.979Z,28.98
2022-08-01T01:12:26.685Z,31.30
2022-08-01T01:15:06.605Z,30.42
2022-08-01T01:20:26.213Z,27.88
2022-08-01T01:23:18.874Z,27.65
2022-08-01T01:25:53.284Z,27.23
2022-08-01T01:28:43.015Z,25.10
2022-08-01T01:31:15.348Z,26.42
2022-08-01T01:33:47.145Z,27.90
2022-08-01T01:36:18.715Z,26.00
2022-08-01T01:38:50.658Z,27.73
2022-08-01T01:41:20.209Z,25.75
2022-08-01T01:43:50.304Z,27.17
2022-08-01T01:46:26.307Z,25.38
2022-08-01T01:48:58.516Z,23.95
2022-08-01T01:51:29.146Z,24.55
2022-08-01T01:54:00.869Z,23.70
2022-08-01T01:56:31.720Z,24.65
2022-08-01T01:59:02.601Z,24.20
2022-08-01T02:01:58.351Z,24.30
2022-08-01T02:04:25.503Z,21.65
2022-08-01T02:06:54.873Z,20.75
2022-08-01T02:09:25.352Z,22.17
2022-08-01T02:12:09.581Z,19.42
2022-08-01T02:15:01.024Z,22.25
2022-08-01T02:17:30.508Z,20.20
2022-08-01T02:19:59.249Z,19.00
2022-08-01T02:22:39.813Z,19.63
2022-08-01T02:25:19.578Z,20.05
2022-08-01T02:28:04.125Z,19.73
2022-08-01T02:30:38.309Z,19.65
2022-08-01T02:33:22.784Z,20.52
2022-08-01T02:36:29.804Z,20.08
2022-08-01T02:38:49.023Z,18.02
2022-08-01T02:41:22.787Z,17.55
2022-08-01T02:43:59.164Z,17.05
2022-08-01T02:46:46.269Z,19.55
2022-08-01T02:49:17.630Z,14.90
2022-08-01T02:51:49.593Z,16.83
2022-08-01T02:54:20.393Z,15.75
2022-08-01T02:56:52.170Z,15.73
2022-08-01T02:59:22.823Z,16.92
2022-08-01T03:01:53.292Z,16.35
2022-08-01T03:04:26.461Z,15.10
2022-08-01T03:07:00.044Z,15.30
2022-08-01T03:09:31.420Z,16.20
2022-08-01T03:12:04.047Z,15.48
2022-08-01T03:14:38.004Z,14.82
2022-08-01T03:17:12.349Z,15.23
2022-08-01T03:19:41.419Z,14.45
2022-08-01T03:22:13.331Z,14.67
2022-08-01T03:24:43.536Z,14.25
2022-08-01T03:27:13.841Z,14.65
2022-08-01T03:29:43.541Z,16.85
2022-08-01T03:32:16.711Z,15.27
2022-08-01T03:34:44.934Z,16.40
2022-08-01T03:37:26.706Z,15.55
2022-08-01T03:40:04.442Z,16.40
2022-08-01T03:42:39.690Z,17.40
2022-08-01T03:45:14.205Z,16.60
2022-08-01T03:47:47.443Z,15.68
2022-08-01T03:50:18.451Z,17.20
2022-08-01T03:52:49.506Z,16.67
2022-08-01T03:55:22.684Z,16.30
2022-08-01T03:57:52.612Z,17.33
2022-08-01T04:02:51.794Z,18.65
2022-08-01T04:05:20.177Z,16.52
2022-08-01T04:07:59.584Z,16.58
2022-08-01T04:10:45.895Z,16.75
2022-08-01T04:13:14.619Z,16.80
2022-08-01T04:15:43.094Z,18.67
2022-08-01T04:18:11.576Z,16.15
2022-08-01T04:20:41.114Z,15.38
2022-08-01T04:23:36.891Z,15.10
2022-08-01T04:26:07.422Z,15.35
2022-08-01T04:28:39.353Z,12.05
2022-08-01T04:31:14.632Z,14.45
2022-08-01T04:33:47.737Z,12.05
2022-08-01T04:36:17.478Z,11.48
2022-08-01T04:38:50.220Z,13.07
2022-08-01T04:41:19.607Z,11.82
2022-08-01T04:43:48.344Z,10.35
2022-08-01T04:46:17.857Z,11.05
2022-08-01T04:48:47.280Z,9.68
2022-08-01T04:51:17.357Z,11.55
2022-08-01T04:53:48.438Z,11.65
2022-08-01T04:56:16.490Z,13.57
2022-08-01T04:58:45.512Z,13.23
2022-08-01T05:01:14.481Z,15.57
2022-08-01T05:03:42.657Z,14.97
2022-08-01T05:06:10.680Z,13.45
2022-08-01T05:08:39.603Z,13.13
2022-08-01T05:11:07.606Z,10.98
2022-08-01T05:13:36.599Z,12.65
2022-08-01T05:16:05.583Z,14.15
2022-08-01T05:18:35.461Z,15.68
2022-08-01T05:21:03.562Z,12.45
2022-08-01T05:23:43.193Z,12.75
2022-08-01T05:26:14.705Z,11.88
2022-08-01T05:28:45.761Z,17.17
2022-08-01T05:31:13.797Z,10.60
2022-08-01T05:33:41.817Z,14.32
2022-08-01T05:36:10.097Z,12.38
2022-08-01T05:38:38.272Z,22.02
2022-08-01T05:41:06.777Z,10.15
2022-08-01T05:43:35.080Z,16.35
2022-08-01T05:46:03.205Z,9.15
2022-08-01T05:48:32.222Z,10.18
2022-08-01T05:51:00.526Z,9.23
2022-08-01T05:53:28.620Z,8.30
2022-08-01T05:55:56.933Z,8.90
2022-08-01T05:58:25.220Z,12.55
2022-08-01T06:00:53.260Z,12.35
2022-08-01T06:03:40.301Z,12.50
2022-08-01T06:06:08.372Z,8.68
2022-08-01T06:08:37.958Z,7.90
2022-08-01T06:11:06.201Z,8.20
2022-08-01T06:13:34.219Z,8.70
2022-08-01T06:16:14.245Z,8.32
2022-08-01T06:18:45.677Z,8.63
2022-08-01T06:21:13.712Z,10.27
2022-08-01T06:23:43.913Z,6.70
2022-08-01T06:26:14.161Z,10.07
2022-08-01T06:29:12.556Z,8.63
2022-08-01T06:32:00.981Z,9.45
2022-08-01T06:34:29.188Z,8.40
2022-08-01T06:36:57.202Z,8.10
2022-08-01T06:39:25.415Z,9.95
2022-08-01T06:41:53.463Z,8.07
2022-08-01T06:44:21.489Z,7.00
2022-08-01T06:46:49.633Z,8.05
2022-08-01T06:49:17.675Z,10.07
2022-08-01T06:51:45.831Z,7.70
2022-08-01T06:54:14.225Z,8.68
2022-08-01T06:56:42.337Z,7.88
2022-08-01T06:59:10.773Z,10.00
2022-08-01T07:01:40.125Z,9.40
2022-08-01T07:04:08.855Z,8.25
2022-08-01T07:06:36.787Z,9.38
2022-08-01T07:09:10.819Z,7.47
2022-08-01T07:11:41.745Z,7.78
2022-08-01T07:14:09.962Z,7.93
2022-08-01T07:16:40.095Z,6.70
2022-08-01T07:19:08.577Z,6.15
2022-08-01T07:21:40.571Z,6.55
2022-08-01T07:24:13.644Z,7.38
2022-08-01T07:26:52.292Z,4.95
2022-08-01T07:29:28.300Z,6.72
2022-08-01T07:31:59.271Z,6.30
2022-08-01T07:34:27.892Z,5.80
2022-08-01T07:36:56.990Z,5.55
2022-08-01T07:39:25.002Z,7.27
2022-08-01T07:42:07.218Z,9.43
2022-08-01T07:44:39.950Z,4.57
2022-08-01T07:47:08.173Z,5.57
2022-08-01T07:49:40.369Z,6.47
2022-08-01T07:52:10.838Z,5.07
2022-08-01T07:54:38.986Z,9.90
2022-08-01T07:57:08.730Z,6.22
2022-08-01T07:59:38.216Z,6.78
2022-08-01T08:02:06.445Z,5.53
2022-08-01T08:04:35.063Z,7.13
2022-08-01T08:07:04.707Z,6.00
2022-08-01T08:12:07.423Z,4.70
2022-08-01T08:14:35.848Z,3.97
2022-08-01T08:17:05.303Z,7.73
2022-08-01T08:19:37.486Z,7.22
2022-08-01T08:22:11.234Z,4.13
2022-08-01T08:24:45.549Z,4.53
2022-08-01T08:27:14.671Z,5.18
2022-08-01T08:29:43.609Z,3.63
2022-08-01T08:32:13.095Z,4.55
2022-08-01T08:34:42.170Z,3.90
2022-08-01T08:37:11.482Z,2.37
2022-08-01T08:39:42.042Z,2.75
2022-08-01T08:42:15.017Z,3.05
2022-08-01T08:45:01.638Z,3.40
2022-08-01T08:47:35.057Z,2.70
2022-08-01T08:50:05.331Z,5.18
2022-08-01T08:52:39.910Z,2.65
2022-08-01T08:55:10.111Z,2.28
2022-08-01T08:57:42.404Z,3.08
2022-08-01T09:00:13.339Z,4.47
2022-08-01T09:02:47.679Z,3.15
2022-08-01T09:08:06.624Z,2.88
2022-08-01T09:10:36.800Z,4.82
2022-08-01T09:13:06.291Z,3.47
2022-08-01T09:15:46.322Z,2.55
2022-08-01T09:18:37.945Z,2.97
2022-08-01T09:21:25.995Z,4.65
2022-08-01T09:23:58.472Z,5.40
2022-08-01T09:26:37.041Z,4.05
2022-08-01T09:29:10.868Z,6.53
2022-08-01T09:31:47.464Z,2.45
2022-08-01T09:34:20.281Z,3.03
2022-08-01T09:37:05.703Z,3.15
2022-08-01T09:39:41.597Z,4.45
2022-08-01T09:42:28.331Z,7.65
2022-08-01T09:44:59.279Z,10.13
2022-08-01T09:47:42.644Z,6.68
2022-08-01T09:50:13.229Z,5.95
2022-08-01T09:52:41.921Z,5.43
2022-08-01T09:55:11.276Z,6.38
2022-08-01T09:57:41.352Z,5.45
2022-08-01T10:00:43.664Z,9.82
2022-08-01T10:03:26.390Z,5.65
2022-08-01T10:05:55.591Z,8.40
2022-08-01T10:08:25.242Z,7.20
2022-08-01T10:11:12.276Z,6.10
2022-08-01T10:13:41.678Z,4.93
2022-08-01T10:16:14.842Z,7.50
2022-08-01T10:18:46.799Z,6.03
2022-08-01T10:21:16.421Z,9.68
2022-08-01T10:24:07.513Z,7.10
2022-08-01T10:26:37.378Z,9.00
2022-08-01T10:29:58.979Z,8.85
2022-08-01T10:32:00.079Z,8.63
2022-08-01T10:34:30.967Z,8.48
2022-08-01T10:36:59.844Z,8.70
2022-08-01T10:39:32.755Z,9.52
2022-08-01T10:42:04.300Z,10.50
2022-08-01T10:44:36.391Z,11.32
2022-08-01T10:47:10.643Z,12.50
2022-08-01T10:49:50.193Z,10.07
2022-08-01T10:52:22.602Z,11.15
2022-08-01T10:55:05.692Z,10.43
2022-08-01T10:57:52.934Z,12.38
2022-08-01T11:00:25.372Z,13.05
2022-08-01T11:03:05.561Z,9.88
2022-08-01T11:05:40.222Z,12.68
2022-08-01T11:08:13.121Z,12.27
2022-08-01T11:10:46.580Z,12.02
2022-08-01T11:13:14.651Z,12.05
2022-08-01T11:15:50.034Z,14.15
2022-08-01T11:18:32.841Z,14.45
2022-08-01T11:21:57.496Z,11.88
2022-08-01T11:23:55.243Z,30.25
2022-08-01T11:26:29.045Z,21.40
2022-08-01T11:29:22.393Z,13.25
2022-08-01T11:31:53.338Z,13.70
2022-08-01T11:34:21.862Z,12.43
2022-08-01T11:36:59.552Z,13.07
2022-08-01T11:39:28.259Z,19.95
2022-08-01T11:42:23.265Z,15.40
2022-08-01T11:44:52.722Z,17.17
2022-08-01T11:47:40.775Z,14.20
2022-08-01T11:50:28.758Z,17.42
2022-08-01T11:53:26.868Z,14.95
2022-08-01T11:55:56.489Z,16.50
2022-08-01T11:58:30.635Z,18.58
2022-08-01T12:01:02.064Z,14.32
2022-08-01T12:03:34.614Z,17.35
2022-08-01T12:06:03.010Z,15.90
2022-08-01T12:08:37.350Z,19.10
2022-08-01T12:11:07.298Z,15.38
2022-08-01T12:13:47.569Z,14.23
2022-08-01T12:16:16.054Z,14.95
2022-08-01T12:18:45.161Z,14.43
2022-08-01T12:21:15.076Z,14.45
2022-08-01T12:26:32.047Z,14.55
2022-08-01T12:29:02.601Z,13.15
2022-08-01T12:34:41.759Z,21.02
2022-08-01T12:37:10.014Z,14.82
2022-08-01T12:39:40.475Z,15.88
2022-08-01T12:42:14.545Z,14.35
2022-08-01T12:44:46.253Z,14.45
2022-08-01T12:47:15.700Z,15.50
2022-08-01T12:50:01.023Z,13.93
2022-08-01T12:52:29.229Z,14.13
2022-08-01T12:55:21.647Z,14.52
2022-08-01T12:57:52.801Z,15.55
2022-08-01T13:00:25.497Z,16.08
2022-08-01T13:03:06.401Z,15.02
2022-08-01T13:05:44.541Z,16.58
2022-08-01T13:08:18.851Z,13.88
2022-08-01T13:10:48.729Z,16.35
2022-08-01T13:13:28.242Z,15.95
2022-08-01T13:16:12.158Z,18.33
2022-08-01T13:18:40.729Z,17.92
2022-08-01T13:21:20.041Z,20.63
2022-08-01T13:24:11.739Z,18.83
2022-08-01T13:26:49.810Z,20.60
2022-08-01T13:29:24.523Z,22.25
2022-08-01T13:31:52.613Z,19.40
2022-08-01T13:34:32.429Z,16.40
2022-08-01T13:37:00.615Z,20.95
2022-08-01T13:39:46.267Z,15.45
2022-08-01T13:42:19.173Z,18.15
2022-08-01T13:44:47.840Z,17.30
2022-08-01T13:47:18.225Z,15.10
2022-08-01T13:49:54.075Z,16.65
2022-08-01T13:52:22.100Z,16.00
2022-08-01T13:54:51.063Z,16.67
2022-08-01T13:57:19.114Z,17.52
2022-08-01T13:59:47.194Z,21.25
2022-08-01T14:02:15.445Z,25.23
2022-08-01T14:04:43.770Z,17.30
2022-08-01T14:07:15.030Z,17.95
2022-08-01T14:10:18.114Z,19.25
2022-08-01T14:12:33.483Z,19.73
2022-08-01T14:15:01.665Z,26.02
2022-08-01T14:17:32.239Z,17.95
2022-08-01T14:20:08.804Z,16.55
2022-08-01T14:22:36.997Z,15.93
2022-08-01T14:25:05.371Z,21.33
2022-08-01T14:27:39.216Z,18.77
2022-08-01T14:30:08.455Z,22.50
2022-08-01T14:32:37.076Z,18.60
2022-08-01T14:35:09.046Z,19.08
2022-08-01T14:37:38.655Z,18.08
2022-08-01T14:40:13.148Z,18.45
2022-08-01T14:42:41.685Z,34.38
2022-08-01T14:45:10.369Z,24.13
2022-08-01T14:47:42.411Z,26.73
2022-08-01T14:50:15.078Z,21.33
2022-08-01T14:52:44.420Z,22.58
2022-08-01T14:55:14.192Z,23.63
2022-08-01T14:58:01.778Z,23.58
2022-08-01T15:00:29.899Z,24.00
2022-08-01T15:02:58.704Z,26.17
2022-08-01T15:05:28.211Z,19.63
2022-08-01T15:07:56.504Z,22.90
2022-08-01T15:10:27.419Z,23.98
2022-08-01T15:12:56.449Z,25.00
2022-08-01T15:15:26.721Z,21.10
2022-08-01T15:17:55.008Z,23.38
2022-08-01T15:20:23.246Z,22.73
2022-08-01T15:22:51.388Z,27.77
2022-08-01T15:25:19.469Z,22.75
2022-08-01T15:27:51.101Z,26.02
2022-08-01T15:32:57.120Z,36.00
2022-08-01T15:35:25.227Z,33.90
2022-08-01T15:37:53.241Z,31.83
2022-08-01T15:40:23.055Z,35.53
2022-08-01T15:42:51.226Z,29.88
2022-08-01T15:45:45.689Z,23.30
2022-08-01T15:48:09.928Z,25.02
2022-08-01T15:50:39.939Z,25.57
2022-08-01T15:55:48.933Z,25.00
2022-08-01T15:58:21.123Z,18.77
2022-08-01T16:00:49.334Z,20.73
2022-08-01T16:03:17.467Z,19.33
2022-08-01T16:05:45.759Z,18.02
2022-08-01T16:08:16.114Z,18.92
2022-08-01T16:10:44.657Z,21.40
2022-08-01T16:13:14.299Z,22.38
2022-08-01T16:15:43.183Z,17.25
2022-08-01T16:18:16.619Z,19.90
2022-08-01T16:21:04.800Z,20.92
2022-08-01T16:23:32.912Z,21.25
2022-08-01T16:26:01.123Z,20.83
2022-08-01T16:28:30.161Z,19.42
2022-08-01T16:31:15.512Z,19.83
2022-08-01T16:33:55.226Z,21.38
2022-08-01T16:36:25.292Z,20.50
2022-08-01T16:38:53.715Z,21.27
2022-08-01T16:41:25.028Z,18.27
2022-08-01T16:43:54.583Z,18.83
2022-08-01T16:46:28.002Z,20.20
2022-08-01T16:48:56.408Z,21.30
2022-08-01T16:51:25.315Z,18.65
2022-08-01T16:53:53.634Z,21.80
2022-08-01T16:56:22.073Z,19.63
2022-08-01T16:58:50.519Z,21.27
2022-08-01T17:02:01.471Z,23.90
2022-08-01T17:04:10.762Z,20.58
2022-08-01T17:06:40.184Z,31.98
2022-08-01T17:09:09.964Z,20.90
2022-08-01T17:11:38.419Z,20.55
2022-08-01T17:14:06.604Z,22.75
2022-08-01T17:16:34.775Z,21.73
2022-08-01T17:19:02.920Z,24.27
2022-08-01T17:21:31.399Z,21.55
2022-08-01T17:23:59.513Z,23.63
2022-08-01T17:26:27.550Z,27.17
2022-08-01T17:28:59.447Z,24.23
2022-08-01T17:31:27.360Z,20.50
2022-08-01T17:33:55.501Z,25.05
2022-08-01T17:36:25.180Z,26.35
2022-08-01T17:38:53.203Z,29.55
2022-08-01T17:41:21.333Z,22.90
2022-08-01T17:43:50.316Z,23.00
2022-08-01T17:46:18.632Z,23.77
2022-08-01T17:48:47.262Z,23.08
2022-08-01T17:51:19.328Z,24.20
2022-08-01T17:53:53.197Z,23.88
2022-08-01T17:56:28.971Z,20.35
2022-08-01T17:58:57.261Z,21.55
2022-08-01T18:01:26.549Z,20.90
2022-08-01T18:03:57.591Z,23.08
2022-08-01T18:06:27.012Z,24.23
2022-08-01T18:08:56.753Z,26.55
2022-08-01T18:11:28.102Z,25.63
2022-08-01T18:13:59.940Z,21.83
2022-08-01T18:16:28.542Z,20.92
2022-08-01T18:18:57.755Z,23.40
2022-08-01T18:21:25.884Z,21.10
2022-08-01T18:23:53.958Z,21.52
2022-08-01T18:26:23.733Z,22.73
2022-08-01T18:28:51.712Z,24.08
2022-08-01T18:31:21.153Z,24.30
2022-08-01T18:33:50.659Z,25.40
2022-08-01T18:36:32.698Z,20.75
2022-08-01T18:39:10.522Z,20.70
2022-08-01T18:41:40.411Z,22.88
2022-08-01T18:44:09.218Z,21.23
2022-08-01T18:46:39.646Z,19.33
2022-08-01T18:49:11.135Z,21.70
2022-08-01T18:51:44.737Z,19.48
2022-08-01T18:54:14.817Z,20.25
2022-08-01T18:56:44.822Z,19.48
2022-08-01T19:01:41.057Z,22.48
2022-08-01T19:04:09.514Z,24.08
2022-08-01T19:06:40.389Z,24.58
2022-08-01T19:09:09.253Z,21.15
2022-08-01T19:11:37.646Z,19.40
2022-08-01T19:14:06.325Z,21.40
2022-08-01T19:16:54.314Z,19.17
2022-08-01T19:19:27.650Z,22.65
2022-08-01T19:21:58.183Z,21.45
2022-08-01T19:25:06.431Z,29.33
2022-08-01T19:27:39.391Z,20.38
2022-08-01T19:30:08.803Z,23.27
2022-08-01T19:32:38.283Z,21.98
2022-08-01T19:35:15.310Z,20.35
2022-08-01T19:37:47.792Z,17.70
2022-08-01T19:40:26.250Z,19.85
2022-08-01T19:42:58.011Z,20.08
2022-08-01T19:45:30.325Z,18.55
2022-08-01T19:47:59.896Z,23.88
2022-08-01T19:50:28.857Z,19.02
2022-08-01T19:53:00.275Z,16.25
2022-08-01T19:55:29.331Z,23.35
2022-08-01T19:58:25.866Z,20.37
2022-08-01T20:00:53.155Z,20.00
2022-08-01T20:03:24.283Z,20.92
2022-08-01T20:05:52.435Z,22.30
2022-08-01T20:08:23.033Z,18.75
2022-08-01T20:10:51.801Z,23.80
2022-08-01T20:13:20.520Z,22.02
2022-08-01T20:15:49.887Z,22.65
2022-08-01T20:18:18.277Z,21.02
2022-08-01T20:20:47.905Z,19.00
2022-08-01T20:23:19.249Z,19.48
2022-08-01T20:25:50.121Z,21.45
2022-08-01T20:28:25.227Z,20.00
2022-08-01T20:30:58.448Z,18.73
2022-08-01T20:33:30.097Z,18.63
2022-08-01T20:35:58.159Z,16.20
2022-08-01T20:38:30.528Z,18.58
2022-08-01T20:40:59.394Z,17.50
2022-08-01T20:43:28.253Z,16.73
2022-08-01T20:45:58.622Z,17.75
2022-08-01T20:48:28.399Z,21.70
2022-08-01T20:51:19.172Z,16.30
2022-08-01T20:53:55.635Z,16.85
2022-08-01T20:56:23.623Z,15.68
2022-08-01T20:59:00.577Z,13.73
2022-08-01T21:01:40.717Z,15.68
2022-08-01T21:04:45.429Z,14.48
2022-08-01T21:07:23.132Z,14.88
2022-08-01T21:10:09.708Z,14.63
2022-08-01T21:13:01.037Z,16.30
2022-08-01T21:15:35.178Z,12.68
2022-08-01T21:18:03.248Z,15.23
2022-08-01T21:20:34.159Z,12.25
2022-08-01T21:23:30.169Z,12.52
2022-08-01T21:25:59.951Z,10.73
2022-08-01T21:28:29.129Z,10.93
2022-08-01T21:30:59.222Z,13.50
2022-08-01T21:33:29.813Z,10.70
2022-08-01T21:36:05.792Z,9.98
2022-08-01T21:38:38.050Z,9.70
2022-08-01T21:41:10.311Z,9.80
2022-08-01T21:43:39.133Z,10.30
2022-08-01T21:46:08.866Z,12.25
2022-08-01T21:48:38.921Z,10.18
2022-08-01T21:51:23.087Z,11.13
2022-08-01T21:54:25.457Z,10.70
2022-08-01T21:57:32.655Z,10.77
2022-08-01T22:00:10.772Z,10.43
2022-08-01T22:03:02.113Z,10.25
2022-08-01T22:05:50.601Z,9.27
2022-08-01T22:08:35.783Z,11.18
2022-08-01T22:11:10.940Z,8.88
2022-08-01T22:13:39.374Z,10.68
2022-08-01T22:16:08.316Z,9.38
2022-08-01T22:18:37.321Z,11.95
2022-08-01T22:21:05.700Z,8.13
2022-08-01T22:23:37.846Z,10.50
2022-08-01T22:26:13.192Z,9.38
2022-08-01T22:28:41.582Z,9.07
2022-08-01T22:31:09.730Z,8.95
2022-08-01T22:33:40.397Z,9.18
2022-08-01T22:36:08.682Z,8.93
2022-08-01T22:38:36.711Z,9.10
2022-08-01T22:41:08.664Z,8.60
2022-08-01T22:43:48.016Z,11.27
2022-08-01T22:46:42.042Z,9.15
2022-08-01T22:49:48.227Z,9.38
2022-08-01T22:52:31.905Z,8.25
2022-08-01T22:55:11.260Z,7.22
2022-08-01T22:57:39.458Z,10.05
2022-08-01T23:00:10.534Z,9.23
2022-08-01T23:02:46.231Z,7.30
2022-08-01T23:05:22.254Z,7.07
2022-08-01T23:07:56.411Z,7.53
2022-08-01T23:10:28.071Z,9.05
2022-08-01T23:12:56.974Z,6.38
2022-08-01T23:15:25.748Z,6.97
2022-08-01T23:17:56.148Z,6.93
2022-08-01T23:20:25.933Z,7.15
2022-08-01T23:22:59.077Z,6.28
2022-08-01T23:25:29.195Z,8.30
2022-08-01T23:28:05.604Z,7.18
2022-08-01T23:30:37.835Z,6.63
2022-08-01T23:33:05.818Z,7.50
2022-08-01T23:35:39.081Z,6.55
2022-08-01T23:38:07.850Z,6.00
2022-08-01T23:40:36.297Z,7.15
2022-08-01T23:43:24.462Z,7.03
2022-08-01T23:46:03.918Z,5.50
2022-08-01T23:48:37.798Z,6.30
2022-08-01T23:51:09.406Z,7.10
2022-08-01T23:53:39.588Z,7.88
2022-08-01T23:56:07.689Z,6.70
2022-08-01T23:58:35.727Z,9.35
